sensor_id;sensor_type;location;lat;lon;timestamp;pressure;altitude;pressure_sealevel;temperature;humidity
77351;BME280;66420;50.246;14.320;2024-03-08T00:01:00;100069.69;;;-0.02;98.11
77351;BME280;66420;50.246;14.320;2024-03-08T00:03:45;100070.09;;;-0.05;95.88
77351;BME280;66420;50.246;14.320;2024-03-08T00:06:29;100076.63;;;-0.12;96.34
77351;BME280;66420;50.246;14.320;2024-03-08T00:09:13;100074.03;;;-0.19;96.87
77351;BME280;66420;50.246;14.320;2024-03-08T00:11:58;100071.22;;;-0.24;96.64
77351;BME280;66420;50.246;14.320;2024-03-08T00:14:43;100068.81;;;-0.32;97.59
77351;BME280;66420;50.246;14.320;2024-03-08T00:17:29;100061.81;;;-0.33;97.61
77351;BME280;66420;50.246;14.320;2024-03-08T00:20:13;100065.16;;;-0.37;98.71
77351;BME280;66420;50.246;14.320;2024-03-08T00:22:58;100066.22;;;-0.38;99.29
77351;BME280;66420;50.246;14.320;2024-03-08T00:25:43;100068.44;;;-0.35;99.07
77351;BME280;66420;50.246;14.320;2024-03-08T00:28:28;100066.00;;;-0.37;98.91
77351;BME280;66420;50.246;14.320;2024-03-08T00:31:12;100064.91;;;-0.36;98.78
77351;BME280;66420;50.246;14.320;2024-03-08T00:33:57;100063.16;;;-0.42;97.81
77351;BME280;66420;50.246;14.320;2024-03-08T00:36:42;100059.28;;;-0.46;99.81
77351;BME280;66420;50.246;14.320;2024-03-08T00:39:26;100060.31;;;-0.47;98.76
77351;BME280;66420;50.246;14.320;2024-03-08T00:42:11;100060.31;;;-0.47;98.17
77351;BME280;66420;50.246;14.320;2024-03-08T00:44:56;100056.72;;;-0.59;100.00
77351;BME280;66420;50.246;14.320;2024-03-08T00:47:42;100056.28;;;-0.56;99.80
77351;BME280;66420;50.246;14.320;2024-03-08T00:50:28;100049.25;;;-0.57;99.26
77351;BME280;66420;50.246;14.320;2024-03-08T00:53:13;100047.75;;;-0.53;100.00
77351;BME280;66420;50.246;14.320;2024-03-08T00:55:57;100050.28;;;-0.58;98.71
77351;BME280;66420;50.246;14.320;2024-03-08T00:58:42;100046.88;;;-0.65;100.00
77351;BME280;66420;50.246;14.320;2024-03-08T01:01:27;100044.09;;;-0.59;100.00
77351;BME280;66420;50.246;14.320;2024-03-08T01:04:11;100041.41;;;-0.59;100.00
77351;BME280;66420;50.246;14.320;2024-03-08T01:06:57;100042.44;;;-0.78;100.00
77351;BME280;66420;50.246;14.320;2024-03-08T01:09:41;100036.78;;;-0.88;100.00
77351;BME280;66420;50.246;14.320;2024-03-08T01:12:27;100038.41;;;-0.87;100.00
77351;BME280;66420;50.246;14.320;2024-03-08T01:15:12;100034.59;;;-0.98;100.00
77351;BME280;66420;50.246;14.320;2024-03-08T01:17:57;100039.06;;;-0.92;100.00
77351;BME280;66420;50.246;14.320;2024-03-08T01:20:43;100037.47;;;-0.93;100.00
77351;BME280;66420;50.246;14.320;2024-03-08T01:23:27;100032.28;;;-0.94;100.00
77351;BME280;66420;50.246;14.320;2024-03-08T01:26:13;100036.84;;;-0.95;100.00
77351;BME280;66420;50.246;14.320;2024-03-08T01:29:00;100032.66;;;-0.91;99.92
77351;BME280;66420;50.246;14.320;2024-03-08T01:31:47;100029.06;;;-1.03;99.47
77351;BME280;66420;50.246;14.320;2024-03-08T01:34:32;100026.56;;;-0.98;99.43
77351;BME280;66420;50.246;14.320;2024-03-08T01:37:17;100025.88;;;-0.93;99.06
77351;BME280;66420;50.246;14.320;2024-03-08T01:40:02;100015.50;;;-1.08;100.00
77351;BME280;66420;50.246;14.320;2024-03-08T01:42:49;100017.03;;;-1.18;100.00
77351;BME280;66420;50.246;14.320;2024-03-08T01:45:34;100016.75;;;-1.10;100.00
77351;BME280;66420;50.246;14.320;2024-03-08T01:48:20;100019.34;;;-1.22;100.00
77351;BME280;66420;50.246;14.320;2024-03-08T01:51:08;100012.56;;;-1.24;100.00
77351;BME280;66420;50.246;14.320;2024-03-08T01:53:55;100012.31;;;-1.23;100.00
77351;BME280;66420;50.246;14.320;2024-03-08T01:56:42;100012.56;;;-1.24;100.00
77351;BME280;66420;50.246;14.320;2024-03-08T01:59:27;100003.22;;;-1.22;100.00
77351;BME280;66420;50.246;14.320;2024-03-08T02:02:14;100007.47;;;-1.14;100.00
77351;BME280;66420;50.246;14.320;2024-03-08T02:05:01;100008.16;;;-1.19;100.00
77351;BME280;66420;50.246;14.320;2024-03-08T02:07:46;100002.94;;;-1.14;100.00
77351;BME280;66420;50.246;14.320;2024-03-08T02:10:31;100003.22;;;-1.22;100.00
77351;BME280;66420;50.246;14.320;2024-03-08T02:13:16;99993.16;;;-1.26;100.00
77351;BME280;66420;50.246;14.320;2024-03-08T02:16:01;99999.50;;;-1.21;100.00
77351;BME280;66420;50.246;14.320;2024-03-08T02:18:46;99995.16;;;-1.22;100.00
77351;BME280;66420;50.246;14.320;2024-03-08T02:21:31;99997.19;;;-1.17;100.00
77351;BME280;66420;50.246;14.320;2024-03-08T02:24:16;99987.13;;;-1.22;100.00
77351;BME280;66420;50.246;14.320;2024-03-08T02:27:00;99995.34;;;-1.17;100.00
77351;BME280;66420;50.246;14.320;2024-03-08T02:29:45;99985.63;;;-1.18;100.00
77351;BME280;66420;50.246;14.320;2024-03-08T02:32:30;99981.84;;;-1.10;100.00
77351;BME280;66420;50.246;14.320;2024-03-08T02:35:17;99986.91;;;-1.20;100.00
77351;BME280;66420;50.246;14.320;2024-03-08T02:38:03;99983.59;;;-1.22;100.00
77351;BME280;66420;50.246;14.320;2024-03-08T02:40:50;99981.38;;;-1.25;100.00
77351;BME280;66420;50.246;14.320;2024-03-08T02:43:35;99987.72;;;-1.20;100.00
77351;BME280;66420;50.246;14.320;2024-03-08T02:46:19;99981.75;;;-1.22;100.00
77351;BME280;66420;50.246;14.320;2024-03-08T02:49:05;99981.03;;;-1.11;100.00
77351;BME280;66420;50.246;14.320;2024-03-08T02:51:52;99977.00;;;-1.02;100.00
77351;BME280;66420;50.246;14.320;2024-03-08T02:54:37;99983.56;;;-0.98;100.00
77351;BME280;66420;50.246;14.320;2024-03-08T02:57:22;99981.88;;;-0.92;100.00
77351;BME280;66420;50.246;14.320;2024-03-08T03:00:07;99981.72;;;-0.97;100.00
77351;BME280;66420;50.246;14.320;2024-03-08T03:02:53;99983.13;;;-0.95;100.00
77351;BME280;66420;50.246;14.320;2024-03-08T03:05:38;99972.38;;;-0.95;100.00
77351;BME280;66420;50.246;14.320;2024-03-08T03:08:25;99971.69;;;-0.90;100.00
77351;BME280;66420;50.246;14.320;2024-03-08T03:11:10;99969.00;;;-0.90;100.00
77351;BME280;66420;50.246;14.320;2024-03-08T03:13:54;99972.06;;;-0.86;100.00
77351;BME280;66420;50.246;14.320;2024-03-08T03:16:40;99968.47;;;-0.80;100.00
77351;BME280;66420;50.246;14.320;2024-03-08T03:19:26;99964.75;;;-0.79;100.00
77351;BME280;66420;50.246;14.320;2024-03-08T03:22:12;99965.19;;;-0.82;100.00
77351;BME280;66420;50.246;14.320;2024-03-08T03:24:57;99971.31;;;-0.75;100.00
77351;BME280;66420;50.246;14.320;2024-03-08T03:27:42;99959.28;;;-0.73;100.00
77351;BME280;66420;50.246;14.320;2024-03-08T03:30:27;99964.66;;;-0.73;100.00
77351;BME280;66420;50.246;14.320;2024-03-08T03:33:17;99959.22;;;-0.66;100.00
77351;BME280;66420;50.246;14.320;2024-03-08T03:36:01;99953.78;;;-0.60;100.00
77351;BME280;66420;50.246;14.320;2024-03-08T03:38:46;99958.91;;;-0.58;100.00
77351;BME280;66420;50.246;14.320;2024-03-08T03:41:31;99956.22;;;-0.58;100.00
77351;BME280;66420;50.246;14.320;2024-03-08T03:44:16;99956.06;;;-0.63;100.00
77351;BME280;66420;50.246;14.320;2024-03-08T03:47:01;99950.25;;;-0.60;100.00
77351;BME280;66420;50.246;14.320;2024-03-08T03:49:45;99955.63;;;-0.60;100.00
77351;BME280;66420;50.246;14.320;2024-03-08T03:52:30;99952.03;;;-0.54;100.00
77351;BME280;66420;50.246;14.320;2024-03-08T03:55:16;99954.97;;;-0.56;100.00
77351;BME280;66420;50.246;14.320;2024-03-08T03:58:00;99959.19;;;-0.48;100.00
77351;BME280;66420;50.246;14.320;2024-03-08T04:00:46;99952.03;;;-0.54;100.00
77351;BME280;66420;50.246;14.320;2024-03-08T04:03:31;99949.63;;;-0.44;100.00
77351;BME280;66420;50.246;14.320;2024-03-08T04:06:16;99939.91;;;-0.45;100.00
77351;BME280;66420;50.246;14.320;2024-03-08T04:09:00;99947.75;;;-0.43;100.00
77351;BME280;66420;50.246;14.320;2024-03-08T04:11:45;99950.22;;;-0.42;100.00
77351;BME280;66420;50.246;14.320;2024-03-08T04:14:30;99948.59;;;-0.43;100.00
77351;BME280;66420;50.246;14.320;2024-03-08T04:17:14;99948.22;;;-0.47;100.00
77351;BME280;66420;50.246;14.320;2024-03-08T04:19:58;99950.22;;;-0.42;100.00
77351;BME280;66420;50.246;14.320;2024-03-08T04:22:43;99945.88;;;-0.43;100.00
77351;BME280;66420;50.246;14.320;2024-03-08T04:25:29;99948.91;;;-0.51;100.00
77351;BME280;66420;50.246;14.320;2024-03-08T04:28:13;99944.75;;;-0.65;100.00
77351;BME280;66420;50.246;14.320;2024-03-08T04:30:58;99942.78;;;-0.58;100.00
77351;BME280;66420;50.246;14.320;2024-03-08T04:33:44;99940.22;;;-0.53;100.00
77351;BME280;66420;50.246;14.320;2024-03-08T04:36:29;99937.22;;;-0.45;100.00
77351;BME280;66420;50.246;14.320;2024-03-08T04:39:13;99939.34;;;-0.47;100.00
77351;BME280;66420;50.246;14.320;2024-03-08T04:42:02;99938.72;;;-0.49;100.00
77351;BME280;66420;50.246;14.320;2024-03-08T04:44:54;99945.28;;;-0.45;100.00
77351;BME280;66420;50.246;14.320;2024-03-08T04:47:39;99942.59;;;-0.45;100.00
77351;BME280;66420;50.246;14.320;2024-03-08T04:50:24;99935.72;;;-0.41;100.00
77351;BME280;66420;50.246;14.320;2024-03-08T04:53:08;99943.09;;;-0.36;100.00
77351;BME280;66420;50.246;14.320;2024-03-08T04:55:53;99941.84;;;-0.34;100.00
77351;BME280;66420;50.246;14.320;2024-03-08T04:58:37;99938.94;;;-0.32;100.00
77351;BME280;66420;50.246;14.320;2024-03-08T05:01:22;99936.00;;;-0.31;100.00
77351;BME280;66420;50.246;14.320;2024-03-08T05:04:07;99941.84;;;-0.34;100.00
77351;BME280;66420;50.246;14.320;2024-03-08T05:06:52;99934.81;;;-0.35;100.00
77351;BME280;66420;50.246;14.320;2024-03-08T05:09:37;99939.47;;;-0.42;100.00
77351;BME280;66420;50.246;14.320;2024-03-08T05:12:22;99940.28;;;-0.41;100.00
77351;BME280;66420;50.246;14.320;2024-03-08T05:15:07;99928.06;;;-0.26;100.00
77351;BME280;66420;50.246;14.320;2024-03-08T05:17:51;99931.22;;;-0.29;100.00
77351;BME280;66420;50.246;14.320;2024-03-08T05:20:36;99931.66;;;-0.32;100.00
77351;BME280;66420;50.246;14.320;2024-03-08T05:23:21;99931.28;;;-0.35;100.00
77351;BME280;66420;50.246;14.320;2024-03-08T05:26:06;99936.78;;;-0.42;100.00
77351;BME280;66420;50.246;14.320;2024-03-08T05:28:51;99923.34;;;-0.42;100.00
77351;BME280;66420;50.246;14.320;2024-03-08T05:31:46;99929.75;;;-0.43;100.00
77351;BME280;66420;50.246;14.320;2024-03-08T05:34:32;99922.03;;;-0.51;100.00
77351;BME280;66420;50.246;14.320;2024-03-08T05:37:17;99925.13;;;-0.54;100.00
77351;BME280;66420;50.246;14.320;2024-03-08T05:40:01;99929.94;;;-0.56;100.00
77351;BME280;66420;50.246;14.320;2024-03-08T05:42:47;99924.94;;;-0.53;100.00
77351;BME280;66420;50.246;14.320;2024-03-08T05:45:32;99925.13;;;-0.54;100.00
77351;BME280;66420;50.246;14.320;2024-03-08T05:48:16;99922.25;;;-0.53;100.00
77351;BME280;66420;50.246;14.320;2024-03-08T05:51:03;99915.69;;;-0.57;100.00
77351;BME280;66420;50.246;14.320;2024-03-08T05:53:48;99921.53;;;-0.60;100.00
77351;BME280;66420;50.246;14.320;2024-03-08T05:56:32;99929.47;;;-0.53;100.00
77351;BME280;66420;50.246;14.320;2024-03-08T05:59:17;99927.34;;;-0.63;100.00
77351;BME280;66420;50.246;14.320;2024-03-08T06:02:03;99924.44;;;-0.61;100.00
77351;BME280;66420;50.246;14.320;2024-03-08T06:04:48;99931.00;;;-0.75;100.00
77351;BME280;66420;50.246;14.320;2024-03-08T06:07:34;99941.75;;;-0.75;100.00
77351;BME280;66420;50.246;14.320;2024-03-08T06:10:19;99935.50;;;-0.69;100.00
77351;BME280;66420;50.246;14.320;2024-03-08T06:13:04;99942.22;;;-0.78;100.00
77351;BME280;66420;50.246;14.320;2024-03-08T06:15:49;99937.44;;;-0.76;100.00
77351;BME280;66420;50.246;14.320;2024-03-08T06:18:34;99934.41;;;-0.68;100.00
77351;BME280;66420;50.246;14.320;2024-03-08T06:21:22;99934.88;;;-0.71;100.00
77351;BME280;66420;50.246;14.320;2024-03-08T06:24:07;99932.06;;;-0.76;100.00
77351;BME280;66420;50.246;14.320;2024-03-08T06:26:52;99933.81;;;-0.52;100.00
77351;BME280;66420;50.246;14.320;2024-03-08T06:29:37;99929.16;;;-0.45;100.00
77351;BME280;66420;50.246;14.320;2024-03-08T06:32:22;99932.06;;;-0.76;100.00
77351;BME280;66420;50.246;14.320;2024-03-08T06:35:07;99933.75;;;-0.64;100.00
77351;BME280;66420;50.246;14.320;2024-03-08T06:37:54;99929.81;;;-0.61;100.00
77351;BME280;66420;50.246;14.320;2024-03-08T06:40:38;99930.09;;;-0.51;100.00
77351;BME280;66420;50.246;14.320;2024-03-08T06:43:25;99933.34;;;-0.49;100.00
77351;BME280;66420;50.246;14.320;2024-03-08T06:46:17;99929.63;;;-0.48;100.00
77351;BME280;66420;50.246;14.320;2024-03-08T06:49:02;99925.69;;;-0.34;100.00
77351;BME280;66420;50.246;14.320;2024-03-08T06:51:47;99925.38;;;-0.26;100.00
77351;BME280;66420;50.246;14.320;2024-03-08T06:54:32;99928.06;;;-0.26;100.00
77351;BME280;66420;50.246;14.320;2024-03-08T06:57:17;99923.16;;;-0.17;100.00
77351;BME280;66420;50.246;14.320;2024-03-08T07:00:02;99925.31;;;-0.08;100.00
77351;BME280;66420;50.246;14.320;2024-03-08T07:02:47;99924.81;;;-0.05;100.00
77351;BME280;66420;50.246;14.320;2024-03-08T07:05:33;99926.16;;;0.05;100.00
77351;BME280;66420;50.246;14.320;2024-03-08T07:08:17;99929.22;;;0.08;100.00
77351;BME280;66420;50.246;14.320;2024-03-08T07:11:03;99919.03;;;0.22;100.00
77351;BME280;66420;50.246;14.320;2024-03-08T07:13:49;99916.81;;;0.30;100.00
77351;BME280;66420;50.246;14.320;2024-03-08T07:16:34;99915.19;;;0.41;100.00
77351;BME280;66420;50.246;14.320;2024-03-08T07:19:19;99913.31;;;0.53;100.00
77351;BME280;66420;50.246;14.320;2024-03-08T07:22:06;99911.78;;;0.69;100.00
77351;BME280;66420;50.246;14.320;2024-03-08T07:24:53;99906.50;;;0.74;100.00
77351;BME280;66420;50.246;14.320;2024-03-08T07:27:55;99910.69;;;0.93;100.00
77351;BME280;66420;50.246;14.320;2024-03-08T07:30:40;99915.00;;;1.06;100.00
77351;BME280;66420;50.246;14.320;2024-03-08T07:33:28;99913.56;;;1.15;100.00
77351;BME280;66420;50.246;14.320;2024-03-08T07:36:12;99901.00;;;1.20;100.00
77351;BME280;66420;50.246;14.320;2024-03-08T07:38:59;99901.94;;;1.26;100.00
77351;BME280;66420;50.246;14.320;2024-03-08T07:41:44;99887.50;;;1.32;99.93
77351;BME280;66420;50.246;14.320;2024-03-08T07:44:28;99895.97;;;1.52;100.00
77351;BME280;66420;50.246;14.320;2024-03-08T07:47:14;99895.75;;;1.70;99.57
77351;BME280;66420;50.246;14.320;2024-03-08T07:49:58;99898.81;;;1.74;98.04
77351;BME280;66420;50.246;14.320;2024-03-08T07:52:44;99900.28;;;1.82;97.28
77351;BME280;66420;50.246;14.320;2024-03-08T07:55:29;99902.81;;;1.88;97.02
77351;BME280;66420;50.246;14.320;2024-03-08T07:58:16;99894.16;;;2.03;96.22
77351;BME280;66420;50.246;14.320;2024-03-08T08:01:02;99881.91;;;2.12;95.40
77351;BME280;66420;50.246;14.320;2024-03-08T08:03:47;99889.94;;;2.23;94.93
77351;BME280;66420;50.246;14.320;2024-03-08T08:06:33;99880.09;;;2.34;94.98
77351;BME280;66420;50.246;14.320;2024-03-08T08:09:17;99875.84;;;2.38;94.27
77351;BME280;66420;50.246;14.320;2024-03-08T08:12:12;99874.59;;;2.46;92.44
77351;BME280;66420;50.246;14.320;2024-03-08T08:14:57;99882.66;;;2.62;93.21
77351;BME280;66420;50.246;14.320;2024-03-08T08:17:42;99869.44;;;2.44;91.39
77351;BME280;66420;50.246;14.320;2024-03-08T08:20:27;99869.75;;;2.64;92.05
77351;BME280;66420;50.246;14.320;2024-03-08T08:23:13;99870.06;;;2.90;92.76
77351;BME280;66420;50.246;14.320;2024-03-08T08:25:58;99869.13;;;3.01;90.44
77351;BME280;66420;50.246;14.320;2024-03-08T08:28:42;99870.28;;;3.05;89.71
77351;BME280;66420;50.246;14.320;2024-03-08T08:31:28;99867.63;;;3.10;90.06
77351;BME280;66420;50.246;14.320;2024-03-08T08:34:12;99866.28;;;3.34;88.92
77351;BME280;66420;50.246;14.320;2024-03-08T08:36:58;99865.72;;;3.32;88.13
77351;BME280;66420;50.246;14.320;2024-03-08T08:39:43;99867.34;;;3.33;87.51
77351;BME280;66420;50.246;14.320;2024-03-08T08:42:27;99859.91;;;3.45;87.98
77351;BME280;66420;50.246;14.320;2024-03-08T08:45:13;99863.50;;;3.51;86.62
77351;BME280;66420;50.246;14.320;2024-03-08T08:47:58;99862.72;;;3.55;86.49
77351;BME280;66420;50.246;14.320;2024-03-08T08:50:44;99856.66;;;3.70;87.17
77351;BME280;66420;50.246;14.320;2024-03-08T08:53:29;99851.72;;;3.94;86.21
77351;BME280;66420;50.246;14.320;2024-03-08T08:56:14;99848.00;;;4.05;84.28
77351;BME280;66420;50.246;14.320;2024-03-08T08:59:00;99848.19;;;3.93;84.22
77351;BME280;66420;50.246;14.320;2024-03-08T09:01:45;99848.63;;;4.12;85.21
77351;BME280;66420;50.246;14.320;2024-03-08T09:04:34;99845.25;;;4.37;83.61
77351;BME280;66420;50.246;14.320;2024-03-08T09:07:19;99840.38;;;4.81;82.20
77351;BME280;66420;50.246;14.320;2024-03-08T09:10:05;99842.00;;;4.82;80.46
77351;BME280;66420;50.246;14.320;2024-03-08T09:12:50;99839.72;;;4.64;79.10
77351;BME280;66420;50.246;14.320;2024-03-08T09:15:34;99834.91;;;4.71;79.07
77351;BME280;66420;50.246;14.320;2024-03-08T09:18:20;99830.13;;;4.98;78.64
77351;BME280;66420;50.246;14.320;2024-03-08T09:21:05;99833.44;;;5.10;78.20
77351;BME280;66420;50.246;14.320;2024-03-08T09:23:52;99833.44;;;5.10;76.42
77351;BME280;66420;50.246;14.320;2024-03-08T09:26:37;99831.56;;;5.16;76.79
77351;BME280;66420;50.246;14.320;2024-03-08T09:29:22;99830.22;;;5.23;76.40
77351;BME280;66420;50.246;14.320;2024-03-08T09:32:07;99824.28;;;5.42;76.68
77351;BME280;66420;50.246;14.320;2024-03-08T09:34:52;99816.97;;;5.42;75.68
77351;BME280;66420;50.246;14.320;2024-03-08T09:37:36;99816.69;;;5.33;76.33
77351;BME280;66420;50.246;14.320;2024-03-08T09:40:22;99816.72;;;5.44;74.88
77351;BME280;66420;50.246;14.320;2024-03-08T09:43:09;99813.16;;;5.33;74.51
77351;BME280;66420;50.246;14.320;2024-03-08T09:45:57;99818.56;;;5.33;75.57
77351;BME280;66420;50.246;14.320;2024-03-08T09:48:42;99812.38;;;5.58;75.07
77351;BME280;66420;50.246;14.320;2024-03-08T09:51:28;99812.94;;;5.80;74.34
77351;BME280;66420;50.246;14.320;2024-03-08T09:54:13;99804.22;;;5.73;70.52
77351;BME280;66420;50.246;14.320;2024-03-08T09:57:03;99800.97;;;5.61;71.68
77351;BME280;66420;50.246;14.320;2024-03-08T09:59:48;99798.53;;;5.69;71.28
77351;BME280;66420;50.246;14.320;2024-03-08T10:02:35;99797.47;;;5.86;71.67
77351;BME280;66420;50.246;14.320;2024-03-08T10:05:20;99792.84;;;5.76;71.41
77351;BME280;66420;50.246;14.320;2024-03-08T10:08:06;99788.50;;;5.75;72.54
77351;BME280;66420;50.246;14.320;2024-03-08T10:10:51;99789.59;;;5.84;71.33
77351;BME280;66420;50.246;14.320;2024-03-08T10:13:36;99787.44;;;6.06;70.15
77351;BME280;66420;50.246;14.320;2024-03-08T10:16:21;99781.44;;;6.24;70.87
77351;BME280;66420;50.246;14.320;2024-03-08T10:19:08;99777.06;;;6.29;70.55
77351;BME280;66420;50.246;14.320;2024-03-08T10:21:57;99779.78;;;6.29;71.19
77351;BME280;66420;50.246;14.320;2024-03-08T10:24:45;99782.16;;;6.55;69.64
77351;BME280;66420;50.246;14.320;2024-03-08T10:27:30;99785.00;;;6.94;70.00
77351;BME280;66420;50.246;14.320;2024-03-08T10:30:15;99788.81;;;6.93;67.98
77351;BME280;66420;50.246;14.320;2024-03-08T10:33:04;99775.38;;;7.17;67.16
77351;BME280;66420;50.246;14.320;2024-03-08T10:35:50;99781.78;;;6.87;68.99
77351;BME280;66420;50.246;14.320;2024-03-08T10:38:39;99780.19;;;6.76;68.91
77351;BME280;66420;50.246;14.320;2024-03-08T10:41:24;99770.22;;;7.10;67.16
77351;BME280;66420;50.246;14.320;2024-03-08T10:47:18;99776.44;;;7.65;66.40
77351;BME280;66420;50.246;14.320;2024-03-08T10:50:19;99762.06;;;7.54;65.81
77351;BME280;66420;50.246;14.320;2024-03-08T10:53:07;99760.53;;;7.38;67.09
77351;BME280;66420;50.246;14.320;2024-03-08T10:55:53;99753.72;;;7.41;68.47
77351;BME280;66420;50.246;14.320;2024-03-08T10:58:38;99746.41;;;7.70;65.15
77351;BME280;66420;50.246;14.320;2024-03-08T11:01:24;99741.97;;;7.79;65.73
77351;BME280;66420;50.246;14.320;2024-03-08T11:04:10;99743.97;;;7.69;65.74
77351;BME280;66420;50.246;14.320;2024-03-08T11:07:00;99735.13;;;7.82;66.06
77351;BME280;66420;50.246;14.320;2024-03-08T11:09:50;99732.69;;;8.09;67.38
77351;BME280;66420;50.246;14.320;2024-03-08T11:12:36;99736.09;;;8.25;65.43
77351;BME280;66420;50.246;14.320;2024-03-08T11:15:24;99726.25;;;8.00;64.87
77351;BME280;66420;50.246;14.320;2024-03-08T11:18:09;99722.09;;;7.79;65.46
77351;BME280;66420;50.246;14.320;2024-03-08T11:20:55;99708.22;;;8.33;65.74
77351;BME280;66420;50.246;14.320;2024-03-08T11:23:40;99700.66;;;8.25;65.41
77351;BME280;66420;50.246;14.320;2024-03-08T11:26:24;99695.03;;;7.87;65.69
77351;BME280;66420;50.246;14.320;2024-03-08T11:32:14;99696.22;;;8.34;65.03
77351;BME280;66420;50.246;14.320;2024-03-08T11:34:59;99687.81;;;8.25;64.27
77351;BME280;66420;50.246;14.320;2024-03-08T11:37:44;99689.00;;;8.43;64.61
77351;BME280;66420;50.246;14.320;2024-03-08T11:40:29;99675.34;;;8.85;65.14
77351;BME280;66420;50.246;14.320;2024-03-08T11:43:16;99674.91;;;8.78;63.55
77351;BME280;66420;50.246;14.320;2024-03-08T11:46:10;99663.31;;;8.86;63.63
77351;BME280;66420;50.246;14.320;2024-03-08T11:48:59;99663.19;;;9.15;62.62
77351;BME280;66420;50.246;14.320;2024-03-08T11:51:45;99656.16;;;8.90;65.28
77351;BME280;66420;50.246;14.320;2024-03-08T11:54:30;99667.59;;;8.55;65.04
77351;BME280;66420;50.246;14.320;2024-03-08T11:57:17;99655.66;;;8.88;65.42
77351;BME280;66420;50.246;14.320;2024-03-08T12:00:02;99655.28;;;9.14;63.33
77351;BME280;66420;50.246;14.320;2024-03-08T12:03:07;99655.06;;;9.10;63.51
77351;BME280;66420;50.246;14.320;2024-03-08T12:05:57;99645.56;;;8.70;64.90
77351;BME280;66420;50.246;14.320;2024-03-08T12:08:46;99633.44;;;8.76;64.28
77351;BME280;66420;50.246;14.320;2024-03-08T12:11:33;99635.44;;;9.08;63.68
77351;BME280;66420;50.246;14.320;2024-03-08T12:14:18;99631.59;;;9.09;62.51
77351;BME280;66420;50.246;14.320;2024-03-08T12:17:04;99632.38;;;9.61;63.07
77351;BME280;66420;50.246;14.320;2024-03-08T12:19:50;99632.06;;;8.98;64.33
77351;BME280;66420;50.246;14.320;2024-03-08T12:22:42;99629.97;;;8.71;65.69
77351;BME280;66420;50.246;14.320;2024-03-08T12:25:31;99630.41;;;8.40;66.04
77351;BME280;66420;50.246;14.320;2024-03-08T12:28:18;99625.63;;;8.51;66.25
77351;BME280;66420;50.246;14.320;2024-03-08T12:31:03;99616.53;;;8.37;65.48
77351;BME280;66420;50.246;14.320;2024-03-08T12:33:54;99611.06;;;8.79;66.00
77351;BME280;66420;50.246;14.320;2024-03-08T12:36:52;99612.16;;;8.78;65.79
77351;BME280;66420;50.246;14.320;2024-03-08T12:39:40;99617.97;;;8.90;66.68
77351;BME280;66420;50.246;14.320;2024-03-08T12:42:25;99604.09;;;8.68;65.05
77351;BME280;66420;50.246;14.320;2024-03-08T12:45:10;99602.03;;;8.98;65.70
77351;BME280;66420;50.246;14.320;2024-03-08T12:47:55;99594.97;;;8.59;66.76
77351;BME280;66420;50.246;14.320;2024-03-08T12:50:40;99598.63;;;8.31;66.47
77351;BME280;66420;50.246;14.320;2024-03-08T12:53:27;99590.97;;;8.33;68.03
77351;BME280;66420;50.246;14.320;2024-03-08T12:56:19;99585.78;;;8.31;67.86
77351;BME280;66420;50.246;14.320;2024-03-08T12:59:06;99581.97;;;8.09;67.53
77351;BME280;66420;50.246;14.320;2024-03-08T13:01:55;99585.94;;;8.16;69.31
77351;BME280;66420;50.246;14.320;2024-03-08T13:04:42;99589.75;;;8.20;68.87
77351;BME280;66420;50.246;14.320;2024-03-08T13:07:29;99587.94;;;8.53;67.30
77351;BME280;66420;50.246;14.320;2024-03-08T13:10:16;99571.88;;;8.70;66.65
77351;BME280;66420;50.246;14.320;2024-03-08T13:13:01;99573.81;;;8.70;66.40
77351;BME280;66420;50.246;14.320;2024-03-08T13:15:47;99574.06;;;8.31;68.49
77351;BME280;66420;50.246;14.320;2024-03-08T13:18:33;99567.19;;;8.38;67.60
77351;BME280;66420;50.246;14.320;2024-03-08T13:21:18;99569.25;;;8.23;69.16
77351;BME280;66420;50.246;14.320;2024-03-08T13:24:05;99572.97;;;8.32;68.37
77351;BME280;66420;50.246;14.320;2024-03-08T13:26:50;99570.63;;;8.44;68.27
77351;BME280;66420;50.246;14.320;2024-03-08T13:29:34;99561.25;;;8.31;68.25
77351;BME280;66420;50.246;14.320;2024-03-08T13:32:18;99560.44;;;8.31;69.06
77351;BME280;66420;50.246;14.320;2024-03-08T13:35:05;99559.75;;;8.20;69.49
77351;BME280;66420;50.246;14.320;2024-03-08T13:37:56;99563.25;;;8.21;69.70
77351;BME280;66420;50.246;14.320;2024-03-08T13:40:41;99558.69;;;8.16;70.04
77351;BME280;66420;50.246;14.320;2024-03-08T13:43:26;99550.03;;;7.90;70.16
77351;BME280;66420;50.246;14.320;2024-03-08T13:46:13;99548.19;;;7.86;70.18
77351;BME280;66420;50.246;14.320;2024-03-08T13:49:03;99549.09;;;8.00;70.67
77351;BME280;66420;50.246;14.320;2024-03-08T13:51:50;99555.00;;;8.07;71.00
77351;BME280;66420;50.246;14.320;2024-03-08T13:54:36;99546.91;;;8.21;70.30
77351;BME280;66420;50.246;14.320;2024-03-08T13:57:21;99547.44;;;8.23;70.24
77351;BME280;66420;50.246;14.320;2024-03-08T14:00:07;99543.75;;;8.14;71.16
77351;BME280;66420;50.246;14.320;2024-03-08T14:02:52;99540.16;;;7.94;71.60
77351;BME280;66420;50.246;14.320;2024-03-08T14:05:41;99536.03;;;7.78;71.39
77351;BME280;66420;50.246;14.320;2024-03-08T14:08:27;99537.88;;;7.83;71.29
77351;BME280;66420;50.246;14.320;2024-03-08T14:11:12;99530.63;;;7.73;70.91
77351;BME280;66420;50.246;14.320;2024-03-08T14:13:57;99534.28;;;7.87;70.68
77351;BME280;66420;50.246;14.320;2024-03-08T14:16:42;99529.50;;;7.98;69.51
77351;BME280;66420;50.246;14.320;2024-03-08T14:19:28;99521.47;;;8.07;70.15
77351;BME280;66420;50.246;14.320;2024-03-08T14:22:14;99520.91;;;8.10;69.66
77351;BME280;66420;50.246;14.320;2024-03-08T14:24:59;99512.41;;;8.11;68.29
77351;BME280;66420;50.246;14.320;2024-03-08T14:27:45;99510.50;;;8.12;69.12
77351;BME280;66420;50.246;14.320;2024-03-08T14:30:30;99511.91;;;8.09;68.87